createdAt,value
2023-01-09T00:01:55.429Z,8.51
2023-01-09T00:04:21.835Z,8.39
2023-01-09T00:06:53.925Z,8.41
2023-01-09T00:09:21.692Z,8.24
2023-01-09T00:11:48.707Z,8.24
2023-01-09T00:14:18.909Z,8.23
2023-01-09T00:16:45.491Z,8.21
2023-01-09T00:19:12.053Z,8.26
2023-01-09T00:21:38.453Z,7.93
2023-01-09T00:24:05.228Z,7.96
2023-01-09T00:26:31.635Z,8.03
2023-01-09T00:28:58.297Z,7.91
2023-01-09T00:31:24.720Z,7.91
2023-01-09T00:33:54.098Z,7.83
2023-01-09T00:36:20.529Z,7.69
2023-01-09T00:38:46.922Z,7.72
2023-01-09T00:41:19.103Z,7.67
2023-01-09T00:43:46.452Z,7.61
2023-01-09T00:46:13.801Z,7.55
2023-01-09T00:48:42.095Z,7.49
2023-01-09T00:51:08.513Z,7.52
2023-01-09T00:53:37.771Z,7.53
2023-01-09T00:56:07.386Z,7.39
2023-01-09T00:58:34.365Z,7.34
2023-01-09T01:01:01.171Z,7.33
2023-01-09T01:03:27.832Z,7.29
2023-01-09T01:06:12.708Z,7.28
2023-01-09T01:08:39.114Z,7.16
2023-01-09T01:11:10.051Z,7.14
2023-01-09T01:13:37.715Z,7.10
2023-01-09T01:16:05.692Z,7.05
2023-01-09T01:18:32.124Z,7.10
2023-01-09T01:20:58.611Z,7.11
2023-01-09T01:23:25.128Z,7.04
2023-01-09T01:25:51.657Z,7.08
2023-01-09T01:28:19.158Z,6.97
2023-01-09T01:30:45.633Z,7.01
2023-01-09T01:33:12.076Z,6.98
2023-01-09T01:35:38.663Z,6.91
2023-01-09T01:38:05.192Z,6.90
2023-01-09T01:40:31.578Z,6.86
2023-01-09T01:42:58.732Z,6.90
2023-01-09T01:45:29.516Z,6.99
2023-01-09T01:48:08.001Z,7.03
2023-01-09T01:50:38.578Z,7.01
2023-01-09T01:53:33.324Z,6.96
2023-01-09T01:56:06.465Z,6.86
2023-01-09T01:58:34.719Z,6.82
2023-01-09T02:01:01.315Z,6.79
2023-01-09T02:03:28.502Z,6.84
2023-01-09T02:05:54.896Z,6.83
2023-01-09T02:08:21.789Z,6.83
2023-01-09T02:10:49.154Z,6.87
2023-01-09T02:13:15.615Z,6.89
2023-01-09T02:16:03.214Z,6.88
2023-01-09T02:18:32.120Z,6.95
2023-01-09T02:21:03.348Z,6.93
2023-01-09T02:23:48.358Z,6.93
2023-01-09T02:27:13.214Z,6.87
2023-01-09T02:30:16.345Z,6.80
2023-01-09T02:32:51.462Z,6.92
2023-01-09T02:35:27.779Z,6.94
2023-01-09T02:38:16.159Z,6.96
2023-01-09T02:41:21.449Z,6.90
2023-01-09T02:43:47.835Z,6.83
2023-01-09T02:46:19.910Z,6.76
2023-01-09T02:48:46.692Z,6.74
2023-01-09T02:51:22.036Z,6.65
2023-01-09T02:54:13.647Z,6.63
2023-01-09T02:57:00.917Z,6.60
2023-01-09T02:59:29.494Z,6.58
2023-01-09T03:02:20.791Z,6.59
2023-01-09T03:04:57.578Z,6.58
2023-01-09T03:07:30.980Z,6.58
2023-01-09T03:10:15.660Z,6.53
2023-01-09T03:12:43.118Z,6.52
2023-01-09T03:15:12.295Z,6.44
2023-01-09T03:17:42.480Z,6.42
2023-01-09T03:20:10.523Z,6.43
2023-01-09T03:22:39.891Z,6.38
2023-01-09T03:25:06.542Z,6.32
2023-01-09T03:27:32.919Z,6.35
2023-01-09T03:29:59.315Z,6.28
2023-01-09T03:32:27.671Z,6.32
2023-01-09T03:34:54.118Z,6.29
2023-01-09T03:37:20.476Z,6.39
2023-01-09T03:39:46.885Z,6.38
2023-01-09T03:42:13.258Z,6.38
2023-01-09T03:44:39.631Z,6.49
2023-01-09T03:47:06.069Z,6.42
2023-01-09T03:49:32.452Z,6.44
2023-01-09T03:51:58.837Z,6.55
2023-01-09T03:54:25.270Z,6.57
2023-01-09T03:56:51.757Z,6.59
2023-01-09T03:59:18.578Z,6.69
2023-01-09T04:01:45.138Z,6.67
2023-01-09T04:04:11.681Z,6.65
2023-01-09T04:06:38.118Z,6.57
2023-01-09T04:09:04.541Z,6.65
2023-01-09T04:11:30.911Z,6.65
2023-01-09T04:13:57.289Z,6.69
2023-01-09T04:16:23.687Z,6.63
2023-01-09T04:18:50.094Z,6.57
2023-01-09T04:21:16.512Z,6.63
2023-01-09T04:23:42.919Z,6.66
2023-01-09T04:26:09.279Z,6.69
2023-01-09T04:28:35.640Z,6.72
2023-01-09T04:31:02.595Z,6.69
2023-01-09T04:33:29.411Z,6.76
2023-01-09T04:35:55.961Z,6.76
2023-01-09T04:38:22.781Z,6.72
2023-01-09T04:40:49.446Z,6.77
2023-01-09T04:43:15.793Z,6.80
2023-01-09T04:45:42.187Z,6.76
2023-01-09T04:48:08.585Z,6.83
2023-01-09T04:50:35.038Z,6.67
2023-01-09T04:53:01.654Z,6.71
2023-01-09T04:55:28.037Z,6.70
2023-01-09T04:57:54.413Z,6.68
2023-01-09T05:00:20.845Z,6.54
2023-01-09T05:02:47.216Z,6.50
2023-01-09T05:05:13.657Z,6.47
2023-01-09T05:07:40.451Z,6.28
2023-01-09T05:10:08.076Z,6.31
2023-01-09T05:12:37.279Z,6.26
2023-01-09T05:15:04.839Z,6.18
2023-01-09T05:17:32.234Z,6.21
2023-01-09T05:19:58.663Z,6.14
2023-01-09T05:22:25.019Z,6.15
2023-01-09T05:24:51.414Z,5.98
2023-01-09T05:27:17.792Z,5.97
2023-01-09T05:29:44.280Z,5.81
2023-01-09T05:32:10.750Z,5.90
2023-01-09T05:34:37.199Z,5.83
2023-01-09T05:37:03.572Z,5.84
2023-01-09T05:39:30.043Z,5.89
2023-01-09T05:41:56.444Z,5.87
2023-01-09T05:44:22.820Z,5.92
2023-01-09T05:46:49.205Z,5.86
2023-01-09T05:49:15.806Z,5.89
2023-01-09T05:51:42.161Z,5.91
2023-01-09T05:54:08.544Z,6.03
2023-01-09T05:56:34.954Z,6.10
2023-01-09T05:59:01.405Z,6.06
2023-01-09T06:01:27.915Z,6.14
2023-01-09T06:03:54.386Z,6.15
2023-01-09T06:06:20.784Z,6.20
2023-01-09T06:08:47.161Z,6.24
2023-01-09T06:11:13.549Z,6.29
2023-01-09T06:13:39.925Z,6.32
2023-01-09T06:16:07.094Z,6.29
2023-01-09T06:18:33.561Z,6.30
2023-01-09T06:20:59.968Z,6.36
2023-01-09T06:23:26.339Z,6.36
2023-01-09T06:25:52.735Z,6.31
2023-01-09T06:28:19.090Z,6.37
2023-01-09T06:30:45.465Z,6.37
2023-01-09T06:33:11.827Z,6.32
2023-01-09T06:35:38.206Z,6.31
2023-01-09T06:38:05.150Z,6.33
2023-01-09T06:40:31.563Z,6.32
2023-01-09T06:42:57.925Z,6.37
2023-01-09T06:45:24.451Z,6.39
2023-01-09T06:47:50.847Z,6.36
2023-01-09T06:50:17.614Z,6.42
2023-01-09T06:52:44.015Z,6.42
2023-01-09T06:55:10.411Z,6.37
2023-01-09T06:57:36.918Z,6.35
2023-01-09T07:00:03.863Z,6.33
2023-01-09T07:02:30.323Z,6.28
2023-01-09T07:04:56.747Z,6.15
2023-01-09T07:07:23.405Z,6.12
2023-01-09T07:09:49.982Z,6.12
2023-01-09T07:12:16.497Z,6.06
2023-01-09T07:14:43.097Z,6.12
2023-01-09T07:17:12.367Z,6.09
2023-01-09T07:19:38.816Z,5.99
2023-01-09T07:22:06.211Z,5.98
2023-01-09T07:24:32.707Z,6.05
2023-01-09T07:26:59.092Z,6.08
2023-01-09T07:29:25.484Z,6.01
2023-01-09T07:31:51.894Z,6.08
2023-01-09T07:34:18.357Z,6.01
2023-01-09T07:36:46.686Z,6.03
2023-01-09T07:39:13.559Z,6.06
2023-01-09T07:41:40.454Z,6.01
2023-01-09T07:44:08.988Z,6.05
2023-01-09T07:46:36.741Z,6.08
2023-01-09T07:49:03.267Z,6.12
2023-01-09T07:51:29.685Z,6.14
2023-01-09T07:53:56.146Z,6.26
2023-01-09T07:56:22.543Z,6.23
2023-01-09T07:58:48.893Z,6.28
2023-01-09T08:01:15.843Z,6.26
2023-01-09T08:03:42.263Z,6.28
2023-01-09T08:06:10.148Z,6.35
2023-01-09T08:08:36.540Z,6.29
2023-01-09T08:11:02.930Z,6.30
2023-01-09T08:13:30.112Z,6.37
2023-01-09T08:15:56.582Z,6.42
2023-01-09T08:18:22.993Z,6.39
2023-01-09T08:20:49.415Z,6.31
2023-01-09T08:23:15.835Z,6.46
2023-01-09T08:25:42.198Z,6.43
2023-01-09T08:28:09.296Z,6.51
2023-01-09T08:30:36.285Z,6.58
2023-01-09T08:33:02.646Z,6.65
2023-01-09T08:35:29.112Z,6.73
2023-01-09T08:37:55.510Z,6.70
2023-01-09T08:40:21.912Z,6.81
2023-01-09T08:43:06.835Z,6.72
2023-01-09T08:45:51.470Z,6.78
2023-01-09T08:48:17.885Z,6.72
2023-01-09T08:50:44.540Z,6.82
2023-01-09T08:53:11.520Z,6.77
2023-01-09T08:55:37.978Z,6.78
2023-01-09T08:58:04.388Z,6.81
2023-01-09T09:00:30.747Z,6.76
2023-01-09T09:02:59.217Z,6.70
2023-01-09T09:05:27.278Z,6.70
2023-01-09T09:07:55.658Z,6.67
2023-01-09T09:10:28.235Z,6.69
2023-01-09T09:12:56.662Z,6.69
2023-01-09T09:15:24.145Z,6.69
2023-01-09T09:17:53.546Z,6.71
2023-01-09T09:20:21.244Z,6.73
2023-01-09T09:22:48.108Z,6.77
2023-01-09T09:25:15.442Z,6.88
2023-01-09T09:27:42.174Z,6.76
2023-01-09T09:30:09.691Z,6.75
2023-01-09T09:32:36.214Z,6.67
2023-01-09T09:35:02.797Z,6.67
2023-01-09T09:37:29.184Z,6.63
2023-01-09T09:39:56.788Z,6.65
2023-01-09T09:43:03.715Z,6.56
2023-01-09T09:45:58.620Z,6.55
2023-01-09T09:48:35.985Z,6.47
2023-01-09T09:51:34.706Z,6.40
2023-01-09T09:54:06.205Z,6.40
2023-01-09T09:56:38.167Z,6.36
2023-01-09T09:59:09.167Z,6.36
2023-01-09T10:01:46.383Z,6.46
2023-01-09T10:04:15.453Z,6.46
2023-01-09T10:06:48.686Z,6.46
2023-01-09T10:09:26.152Z,6.39
2023-01-09T10:12:04.038Z,6.47
2023-01-09T10:14:30.838Z,6.53
2023-01-09T10:17:03.382Z,6.60
2023-01-09T10:19:49.038Z,6.55
2023-01-09T10:22:35.435Z,6.52
2023-01-09T10:25:13.958Z,6.46
2023-01-09T10:27:53.314Z,6.51
2023-01-09T10:30:38.237Z,6.52
2023-01-09T10:33:37.074Z,6.57
2023-01-09T10:36:22.042Z,6.57
2023-01-09T10:38:50.940Z,6.56
2023-01-09T10:41:39.212Z,6.68
2023-01-09T10:44:20.609Z,6.65
2023-01-09T10:46:55.441Z,6.71
2023-01-09T10:49:23.678Z,6.80
2023-01-09T10:52:02.061Z,6.84
2023-01-09T10:54:29.037Z,6.92
2023-01-09T10:56:58.444Z,6.86
2023-01-09T10:59:25.116Z,6.93
2023-01-09T11:01:51.573Z,6.88
2023-01-09T11:04:27.037Z,6.99
2023-01-09T11:06:58.744Z,7.06
2023-01-09T11:09:25.114Z,7.15
2023-01-09T11:11:52.744Z,7.19
2023-01-09T11:14:32.884Z,7.23
2023-01-09T11:17:04.009Z,7.28
2023-01-09T11:19:33.138Z,7.45
2023-01-09T11:22:08.281Z,7.37
2023-01-09T11:24:34.950Z,7.41
2023-01-09T11:27:13.602Z,7.38
2023-01-09T11:29:41.035Z,7.36
2023-01-09T11:32:21.194Z,7.42
2023-01-09T11:34:47.907Z,7.48
2023-01-09T11:37:25.691Z,7.45
2023-01-09T11:39:52.459Z,7.54
2023-01-09T11:42:44.170Z,7.56
2023-01-09T11:45:21.867Z,7.64
2023-01-09T11:47:48.260Z,7.71
2023-01-09T11:50:18.017Z,7.86
2023-01-09T11:52:44.582Z,7.98
2023-01-09T11:55:14.246Z,8.03
2023-01-09T11:57:40.712Z,7.95
2023-01-09T12:00:20.759Z,7.85
2023-01-09T12:03:14.233Z,7.79
2023-01-09T12:05:50.668Z,7.77
2023-01-09T12:08:46.533Z,7.68
2023-01-09T12:11:28.445Z,7.69
2023-01-09T12:14:23.864Z,7.67
2023-01-09T12:17:07.282Z,7.55
2023-01-09T12:20:11.308Z,7.54
2023-01-09T12:23:07.938Z,7.54
2023-01-09T12:25:37.190Z,7.44
2023-01-09T12:28:31.159Z,7.43
2023-01-09T12:31:37.902Z,7.33
2023-01-09T12:34:36.147Z,7.38
2023-01-09T12:37:04.698Z,7.44
2023-01-09T12:39:39.681Z,7.56
2023-01-09T12:42:24.110Z,7.44
2023-01-09T12:45:01.541Z,7.52
2023-01-09T12:47:45.423Z,7.43
2023-01-09T12:50:39.388Z,7.39
2023-01-09T12:53:25.739Z,7.33
2023-01-09T12:56:04.387Z,7.26
2023-01-09T12:58:41.554Z,7.26
2023-01-09T13:01:14.468Z,7.24
2023-01-09T13:03:48.000Z,7.21
2023-01-09T13:06:17.432Z,7.07
2023-01-09T13:08:55.595Z,7.17
2023-01-09T13:11:34.397Z,7.17
2023-01-09T13:14:10.187Z,7.30
2023-01-09T13:16:42.005Z,7.22
2023-01-09T13:19:25.806Z,7.32
2023-01-09T13:21:53.559Z,7.49
2023-01-09T13:24:24.977Z,7.38
2023-01-09T13:26:57.185Z,7.19
2023-01-09T13:29:23.443Z,7.21
2023-01-09T13:31:56.059Z,7.16
2023-01-09T13:34:25.129Z,7.19
2023-01-09T13:36:53.746Z,7.15
2023-01-09T13:39:28.520Z,7.14
2023-01-09T13:42:17.712Z,7.15
2023-01-09T13:44:44.913Z,7.13
2023-01-09T13:47:17.544Z,7.19
2023-01-09T13:49:43.898Z,7.17
2023-01-09T13:52:36.518Z,7.14
2023-01-09T13:55:11.831Z,7.05
2023-01-09T13:57:42.234Z,7.06
2023-01-09T14:00:14.719Z,7.07
2023-01-09T14:02:41.240Z,7.06
2023-01-09T14:05:36.559Z,7.07
2023-01-09T14:08:12.439Z,7.03
2023-01-09T14:10:44.901Z,7.07
2023-01-09T14:13:20.389Z,7.05
2023-01-09T14:15:49.426Z,6.99
2023-01-09T14:18:18.711Z,6.98
2023-01-09T14:20:52.644Z,7.01
2023-01-09T14:23:45.551Z,7.05
2023-01-09T14:26:17.979Z,7.01
2023-01-09T14:28:44.721Z,7.05
2023-01-09T14:31:27.553Z,6.99
2023-01-09T14:34:34.205Z,7.03
2023-01-09T14:37:02.220Z,7.04
2023-01-09T14:39:31.526Z,6.98
2023-01-09T14:42:06.354Z,6.98
2023-01-09T14:44:46.880Z,7.01
2023-01-09T14:47:17.250Z,7.01
2023-01-09T14:49:47.073Z,7.04
2023-01-09T14:52:21.356Z,7.09
2023-01-09T14:54:48.567Z,7.00
2023-01-09T14:57:25.335Z,7.10
2023-01-09T15:00:06.037Z,7.04
2023-01-09T15:02:35.442Z,7.04
2023-01-09T15:05:10.743Z,7.06
2023-01-09T15:07:45.015Z,6.92
2023-01-09T15:10:21.109Z,6.85
2023-01-09T15:12:49.329Z,6.77
2023-01-09T15:15:16.812Z,6.80
2023-01-09T15:17:45.591Z,6.73
2023-01-09T15:20:22.060Z,6.80
2023-01-09T15:22:54.609Z,6.72
2023-01-09T15:25:33.926Z,6.74
2023-01-09T15:28:23.188Z,6.69
2023-01-09T15:30:55.349Z,6.59
2023-01-09T15:33:21.612Z,6.56
2023-01-09T15:35:50.109Z,6.66
2023-01-09T15:38:21.002Z,6.70
2023-01-09T15:40:55.177Z,6.67
2023-01-09T15:43:21.725Z,6.59
2023-01-09T15:45:48.444Z,6.51
2023-01-09T15:48:29.192Z,6.38
2023-01-09T15:50:58.375Z,6.43
2023-01-09T15:53:27.114Z,6.26
2023-01-09T15:56:02.548Z,6.37
2023-01-09T15:58:32.939Z,6.31
2023-01-09T16:01:01.496Z,6.26
2023-01-09T16:03:28.742Z,6.22
2023-01-09T16:05:57.940Z,6.24
2023-01-09T16:08:29.172Z,6.22
2023-01-09T16:10:58.417Z,6.16
2023-01-09T16:13:26.139Z,6.20
2023-01-09T16:15:53.043Z,6.20
2023-01-09T16:18:22.311Z,6.18
2023-01-09T16:20:49.292Z,6.28
2023-01-09T16:23:21.544Z,6.00
2023-01-09T16:25:47.968Z,6.09
2023-01-09T16:28:26.630Z,6.23
2023-01-09T16:30:56.012Z,6.08
2023-01-09T16:33:24.818Z,6.32
2023-01-09T16:35:51.627Z,6.35
2023-01-09T16:38:18.110Z,6.35
2023-01-09T16:41:25.507Z,6.03
2023-01-09T16:43:52.214Z,5.88
2023-01-09T16:46:20.436Z,5.90
2023-01-09T16:48:47.593Z,6.12
2023-01-09T16:51:16.623Z,6.18
2023-01-09T16:53:43.616Z,6.17
2023-01-09T16:56:15.087Z,6.01
2023-01-09T16:58:41.582Z,6.10
2023-01-09T17:01:09.801Z,5.92
2023-01-09T17:03:36.475Z,6.03
2023-01-09T17:06:04.031Z,5.98
2023-01-09T17:08:32.707Z,5.99
2023-01-09T17:10:59.135Z,5.99
2023-01-09T17:13:25.946Z,6.16
2023-01-09T17:15:53.776Z,6.13
2023-01-09T17:18:24.979Z,6.16
2023-01-09T17:20:53.233Z,6.23
2023-01-09T17:23:20.929Z,6.31
2023-01-09T17:26:06.429Z,6.22
2023-01-09T17:28:32.824Z,6.20
2023-01-09T17:31:00.488Z,6.20
2023-01-09T17:33:27.369Z,6.05
2023-01-09T17:35:53.841Z,6.16
2023-01-09T17:38:20.303Z,6.08
2023-01-09T17:40:46.731Z,6.15
2023-01-09T17:43:13.382Z,6.13
2023-01-09T17:45:41.118Z,6.14
2023-01-09T17:48:14.825Z,6.19
2023-01-09T17:50:41.176Z,6.19
2023-01-09T17:53:07.661Z,6.16
2023-01-09T17:55:34.959Z,6.26
2023-01-09T17:58:01.388Z,6.17
2023-01-09T18:00:30.446Z,6.14
2023-01-09T18:02:57.288Z,5.93
2023-01-09T18:05:25.038Z,5.84
2023-01-09T18:07:51.579Z,5.92
2023-01-09T18:10:19.984Z,5.83
2023-01-09T18:12:54.165Z,5.90
2023-01-09T18:15:23.776Z,6.04
2023-01-09T18:17:51.567Z,6.08
2023-01-09T18:20:18.319Z,6.03
2023-01-09T18:22:44.791Z,5.91
2023-01-09T18:25:11.214Z,5.90
2023-01-09T18:27:38.023Z,5.92
2023-01-09T18:30:06.499Z,5.90
2023-01-09T18:32:33.490Z,5.87
2023-01-09T18:34:59.865Z,5.79
2023-01-09T18:37:26.337Z,5.75
2023-01-09T18:39:52.727Z,5.75
2023-01-09T18:42:19.162Z,5.64
2023-01-09T18:44:45.542Z,5.69
2023-01-09T18:47:11.970Z,5.59
2023-01-09T18:49:38.402Z,5.58
2023-01-09T18:52:07.398Z,5.70
2023-01-09T18:54:33.988Z,5.67
2023-01-09T18:57:00.370Z,5.61
2023-01-09T18:59:26.781Z,5.60
2023-01-09T19:01:53.180Z,5.57
2023-01-09T19:04:19.700Z,5.56
2023-01-09T19:06:46.126Z,5.57
2023-01-09T19:09:12.637Z,5.58
2023-01-09T19:11:39.200Z,5.58
2023-01-09T19:14:05.593Z,5.61
2023-01-09T19:16:32.054Z,5.50
2023-01-09T19:18:59.003Z,5.62
2023-01-09T19:21:26.757Z,5.63
2023-01-09T19:23:53.164Z,5.63
2023-01-09T19:26:21.660Z,5.70
2023-01-09T19:28:48.168Z,5.63
2023-01-09T19:31:14.793Z,5.64
2023-01-09T19:33:41.270Z,5.55
2023-01-09T19:36:08.190Z,5.56
2023-01-09T19:38:34.562Z,5.56
2023-01-09T19:41:17.594Z,5.53
2023-01-09T19:43:43.992Z,5.68
2023-01-09T19:46:13.713Z,5.71
2023-01-09T19:48:41.576Z,5.62
2023-01-09T19:51:08.788Z,5.69
2023-01-09T19:53:35.644Z,5.75
2023-01-09T19:56:16.664Z,5.60
2023-01-09T19:58:48.408Z,5.57
2023-01-09T20:01:16.853Z,5.53
2023-01-09T20:03:44.778Z,5.68
2023-01-09T20:06:14.231Z,5.74
2023-01-09T20:08:41.904Z,5.83
2023-01-09T20:11:08.474Z,5.79
2023-01-09T20:13:35.048Z,5.78
2023-01-09T20:16:02.248Z,5.86
2023-01-09T20:18:29.509Z,5.81
2023-01-09T20:20:58.929Z,5.82
2023-01-09T20:23:32.275Z,5.86
2023-01-09T20:26:00.030Z,5.83
2023-01-09T20:28:27.294Z,5.73
2023-01-09T20:30:53.812Z,5.79
2023-01-09T20:33:20.935Z,5.91
2023-01-09T20:35:47.399Z,5.87
2023-01-09T20:38:13.897Z,5.82
2023-01-09T20:40:43.755Z,5.96
2023-01-09T20:43:12.001Z,5.99
2023-01-09T20:45:39.256Z,5.99
2023-01-09T20:48:05.923Z,5.96
2023-01-09T20:50:33.046Z,5.92
2023-01-09T20:52:59.493Z,5.98
2023-01-09T20:55:25.944Z,6.00
2023-01-09T20:57:52.389Z,5.98
2023-01-09T21:00:18.889Z,6.03
2023-01-09T21:02:45.232Z,6.04
2023-01-09T21:05:11.602Z,5.92
2023-01-09T21:07:37.966Z,5.84
2023-01-09T21:10:04.802Z,5.93
2023-01-09T21:12:37.652Z,5.92
2023-01-09T21:15:06.289Z,6.01
2023-01-09T21:17:37.065Z,5.88
2023-01-09T21:20:05.918Z,5.88
2023-01-09T21:22:33.553Z,5.75
2023-01-09T21:24:59.951Z,5.75
2023-01-09T21:27:35.830Z,5.85
2023-01-09T21:30:03.973Z,5.85
2023-01-09T21:32:32.587Z,5.92
2023-01-09T21:35:05.102Z,5.76
2023-01-09T21:37:33.409Z,5.59
2023-01-09T21:40:00.625Z,5.89
2023-01-09T21:42:53.849Z,5.84
2023-01-09T21:45:38.699Z,5.87
2023-01-09T21:48:06.043Z,5.79
2023-01-09T21:50:33.737Z,5.85
2023-01-09T21:53:00.272Z,5.93
2023-01-09T21:55:26.748Z,5.84
2023-01-09T21:57:56.499Z,5.74
2023-01-09T22:00:23.433Z,5.65
2023-01-09T22:02:50.073Z,5.71
2023-01-09T22:05:16.459Z,5.84
2023-01-09T22:07:42.830Z,5.66
2023-01-09T22:10:09.690Z,5.81
2023-01-09T22:12:36.043Z,5.81
2023-01-09T22:15:02.529Z,5.75
2023-01-09T22:17:29.075Z,5.66
2023-01-09T22:19:55.423Z,5.86
2023-01-09T22:22:21.782Z,5.84
2023-01-09T22:24:49.731Z,5.89
2023-01-09T22:27:16.090Z,5.74
2023-01-09T22:29:42.549Z,5.87
2023-01-09T22:32:09.040Z,5.75
2023-01-09T22:34:35.424Z,5.64
2023-01-09T22:37:02.097Z,5.81
2023-01-09T22:39:28.501Z,5.83
2023-01-09T22:41:55.208Z,5.67
2023-01-09T22:44:21.741Z,5.75
2023-01-09T22:46:48.267Z,5.92
2023-01-09T22:49:14.659Z,5.90
2023-01-09T22:51:41.069Z,5.83
2023-01-09T22:54:07.470Z,5.77
2023-01-09T22:56:33.915Z,5.78
2023-01-09T22:59:00.999Z,5.76
2023-01-09T23:01:27.610Z,5.70
2023-01-09T23:03:53.983Z,5.77
2023-01-09T23:06:21.715Z,5.75
2023-01-09T23:08:53.162Z,5.69
2023-01-09T23:11:47.782Z,5.68
2023-01-09T23:14:14.157Z,5.74
2023-01-09T23:16:41.130Z,5.80
2023-01-09T23:19:16.975Z,5.80
2023-01-09T23:21:44.313Z,5.79
2023-01-09T23:24:11.542Z,5.75
2023-01-09T23:26:40.801Z,5.76
2023-01-09T23:29:07.763Z,5.74
2023-01-09T23:31:34.586Z,5.61
2023-01-09T23:34:01.057Z,5.77
2023-01-09T23:36:27.512Z,5.62
2023-01-09T23:38:53.872Z,5.70
2023-01-09T23:41:22.261Z,5.89
2023-01-09T23:43:48.623Z,5.71
2023-01-09T23:46:15.034Z,5.79
2023-01-09T23:48:41.444Z,5.90
2023-01-09T23:51:07.820Z,5.90
2023-01-09T23:53:34.225Z,5.88
2023-01-09T23:56:01.440Z,5.86
2023-01-09T23:58:27.822Z,5.82
